sensor_id;sensor_type;location;lat;lon;timestamp;P1;durP1;ratioP1;P2;durP2;ratioP2
11711;SDS011;5912;51.034;6.984;2022-08-19T00:01:43;9.02;;;8.13;;
11711;SDS011;5912;51.034;6.984;2022-08-19T00:04:12;8.18;;;7.38;;
11711;SDS011;5912;51.034;6.984;2022-08-19T00:06:40;8.50;;;7.72;;
11711;SDS011;5912;51.034;6.984;2022-08-19T00:09:08;9.05;;;8.20;;
11711;SDS011;5912;51.034;6.984;2022-08-19T00:11:40;9.02;;;8.13;;
11711;SDS011;5912;51.034;6.984;2022-08-19T00:14:07;8.32;;;7.53;;
11711;SDS011;5912;51.034;6.984;2022-08-19T00:16:34;8.90;;;8.00;;
11711;SDS011;5912;51.034;6.984;2022-08-19T00:19:01;8.10;;;7.25;;
11711;SDS011;5912;51.034;6.984;2022-08-19T00:21:27;8.57;;;7.78;;
11711;SDS011;5912;51.034;6.984;2022-08-19T00:23:54;8.70;;;7.90;;
11711;SDS011;5912;51.034;6.984;2022-08-19T00:26:23;8.05;;;7.25;;
11711;SDS011;5912;51.034;6.984;2022-08-19T00:28:49;9.00;;;8.20;;
11711;SDS011;5912;51.034;6.984;2022-08-19T00:31:14;9.10;;;8.20;;
11711;SDS011;5912;51.034;6.984;2022-08-19T00:33:41;8.55;;;7.75;;
11711;SDS011;5912;51.034;6.984;2022-08-19T00:36:07;9.40;;;8.50;;
11711;SDS011;5912;51.034;6.984;2022-08-19T00:38:35;9.57;;;8.40;;
11711;SDS011;5912;51.034;6.984;2022-08-19T00:41:03;9.55;;;8.65;;
11711;SDS011;5912;51.034;6.984;2022-08-19T00:43:31;10.13;;;8.40;;
11711;SDS011;5912;51.034;6.984;2022-08-19T00:45:56;10.00;;;9.00;;
11711;SDS011;5912;51.034;6.984;2022-08-19T00:48:22;10.13;;;9.13;;
11711;SDS011;5912;51.034;6.984;2022-08-19T00:50:48;10.38;;;9.27;;
11711;SDS011;5912;51.034;6.984;2022-08-19T00:53:18;9.65;;;8.73;;
11711;SDS011;5912;51.034;6.984;2022-08-19T00:55:48;10.23;;;9.25;;
11711;SDS011;5912;51.034;6.984;2022-08-19T00:58:16;10.05;;;9.13;;
11711;SDS011;5912;51.034;6.984;2022-08-19T01:00:44;10.68;;;8.88;;
11711;SDS011;5912;51.034;6.984;2022-08-19T01:03:12;10.05;;;9.10;;
11711;SDS011;5912;51.034;6.984;2022-08-19T01:05:40;11.20;;;9.57;;
11711;SDS011;5912;51.034;6.984;2022-08-19T01:08:08;10.65;;;9.55;;
11711;SDS011;5912;51.034;6.984;2022-08-19T01:10:36;9.27;;;8.38;;
11711;SDS011;5912;51.034;6.984;2022-08-19T01:13:05;9.85;;;8.95;;
11711;SDS011;5912;51.034;6.984;2022-08-19T01:15:33;10.10;;;9.02;;
11711;SDS011;5912;51.034;6.984;2022-08-19T01:18:01;10.73;;;9.63;;
11711;SDS011;5912;51.034;6.984;2022-08-19T01:20:31;10.68;;;9.30;;
11711;SDS011;5912;51.034;6.984;2022-08-19T01:22:57;11.80;;;9.93;;
11711;SDS011;5912;51.034;6.984;2022-08-19T01:25:27;10.23;;;9.13;;
11711;SDS011;5912;51.034;6.984;2022-08-19T01:27:59;11.48;;;10.35;;
11711;SDS011;5912;51.034;6.984;2022-08-19T01:30:26;9.98;;;8.98;;
11711;SDS011;5912;51.034;6.984;2022-08-19T01:32:55;9.90;;;9.00;;
11711;SDS011;5912;51.034;6.984;2022-08-19T01:35:22;12.48;;;10.75;;
11711;SDS011;5912;51.034;6.984;2022-08-19T01:37:53;11.45;;;10.25;;
11711;SDS011;5912;51.034;6.984;2022-08-19T01:40:25;11.93;;;10.75;;
11711;SDS011;5912;51.034;6.984;2022-08-19T01:42:54;12.88;;;11.10;;
11711;SDS011;5912;51.034;6.984;2022-08-19T01:45:20;11.27;;;10.18;;
11711;SDS011;5912;51.034;6.984;2022-08-19T01:47:48;11.88;;;10.68;;
11711;SDS011;5912;51.034;6.984;2022-08-19T01:50:14;11.95;;;10.57;;
11711;SDS011;5912;51.034;6.984;2022-08-19T01:52:41;11.32;;;10.13;;
11711;SDS011;5912;51.034;6.984;2022-08-19T01:55:10;11.65;;;10.55;;
11711;SDS011;5912;51.034;6.984;2022-08-19T01:57:38;12.63;;;10.80;;
11711;SDS011;5912;51.034;6.984;2022-08-19T02:00:07;12.15;;;10.75;;
11711;SDS011;5912;51.034;6.984;2022-08-19T02:02:35;12.07;;;10.88;;
11711;SDS011;5912;51.034;6.984;2022-08-19T02:05:01;11.23;;;10.13;;
11711;SDS011;5912;51.034;6.984;2022-08-19T02:07:26;11.27;;;10.20;;
11711;SDS011;5912;51.034;6.984;2022-08-19T02:09:53;11.23;;;10.07;;
11711;SDS011;5912;51.034;6.984;2022-08-19T02:12:19;12.07;;;10.88;;
11711;SDS011;5912;51.034;6.984;2022-08-19T02:14:45;11.07;;;9.98;;
11711;SDS011;5912;51.034;6.984;2022-08-19T02:17:11;12.93;;;11.07;;
11711;SDS011;5912;51.034;6.984;2022-08-19T02:19:36;11.90;;;10.23;;
11711;SDS011;5912;51.034;6.984;2022-08-19T02:22:01;14.35;;;11.73;;
11711;SDS011;5912;51.034;6.984;2022-08-19T02:24:27;12.45;;;11.25;;
11711;SDS011;5912;51.034;6.984;2022-08-19T02:26:52;12.60;;;11.30;;
11711;SDS011;5912;51.034;6.984;2022-08-19T02:29:18;12.90;;;10.80;;
11711;SDS011;5912;51.034;6.984;2022-08-19T02:31:44;12.98;;;11.57;;
11711;SDS011;5912;51.034;6.984;2022-08-19T02:34:09;13.07;;;11.43;;
11711;SDS011;5912;51.034;6.984;2022-08-19T02:36:35;12.23;;;11.02;;
11711;SDS011;5912;51.034;6.984;2022-08-19T02:39:00;11.68;;;10.52;;
11711;SDS011;5912;51.034;6.984;2022-08-19T02:41:27;11.70;;;10.57;;
11711;SDS011;5912;51.034;6.984;2022-08-19T02:43:56;12.10;;;10.50;;
11711;SDS011;5912;51.034;6.984;2022-08-19T02:46:26;11.65;;;10.45;;
11711;SDS011;5912;51.034;6.984;2022-08-19T02:48:58;11.73;;;10.63;;
11711;SDS011;5912;51.034;6.984;2022-08-19T02:51:28;11.90;;;10.73;;
11711;SDS011;5912;51.034;6.984;2022-08-19T02:53:56;11.88;;;10.63;;
11711;SDS011;5912;51.034;6.984;2022-08-19T02:56:22;11.85;;;10.65;;
11711;SDS011;5912;51.034;6.984;2022-08-19T02:58:49;11.63;;;10.00;;
11711;SDS011;5912;51.034;6.984;2022-08-19T03:01:22;12.13;;;10.63;;
11711;SDS011;5912;51.034;6.984;2022-08-19T03:03:52;13.13;;;11.73;;
11711;SDS011;5912;51.034;6.984;2022-08-19T03:06:18;13.30;;;11.43;;
11711;SDS011;5912;51.034;6.984;2022-08-19T03:11:30;11.73;;;10.52;;
11711;SDS011;5912;51.034;6.984;2022-08-19T03:13:57;11.98;;;10.55;;
11711;SDS011;5912;51.034;6.984;2022-08-19T03:16:24;12.07;;;10.88;;
11711;SDS011;5912;51.034;6.984;2022-08-19T03:18:52;11.55;;;10.35;;
11711;SDS011;5912;51.034;6.984;2022-08-19T03:21:22;11.90;;;10.65;;
11711;SDS011;5912;51.034;6.984;2022-08-19T03:23:49;12.07;;;10.82;;
11711;SDS011;5912;51.034;6.984;2022-08-19T03:26:15;11.73;;;10.40;;
11711;SDS011;5912;51.034;6.984;2022-08-19T03:28:41;11.48;;;10.27;;
11711;SDS011;5912;51.034;6.984;2022-08-19T03:31:09;12.82;;;11.15;;
11711;SDS011;5912;51.034;6.984;2022-08-19T03:33:36;11.63;;;10.43;;
11711;SDS011;5912;51.034;6.984;2022-08-19T03:36:03;11.82;;;10.70;;
11711;SDS011;5912;51.034;6.984;2022-08-19T03:38:29;12.98;;;10.73;;
11711;SDS011;5912;51.034;6.984;2022-08-19T03:40:54;11.77;;;10.57;;
11711;SDS011;5912;51.034;6.984;2022-08-19T03:43:20;11.75;;;10.55;;
11711;SDS011;5912;51.034;6.984;2022-08-19T03:45:46;11.63;;;10.52;;
11711;SDS011;5912;51.034;6.984;2022-08-19T03:48:11;11.93;;;10.70;;
11711;SDS011;5912;51.034;6.984;2022-08-19T03:50:40;12.32;;;10.10;;
11711;SDS011;5912;51.034;6.984;2022-08-19T03:53:05;13.50;;;11.00;;
11711;SDS011;5912;51.034;6.984;2022-08-19T03:55:33;11.18;;;10.05;;
11711;SDS011;5912;51.034;6.984;2022-08-19T03:57:58;11.43;;;10.23;;
11711;SDS011;5912;51.034;6.984;2022-08-19T04:00:24;11.25;;;10.15;;
11711;SDS011;5912;51.034;6.984;2022-08-19T04:02:49;11.35;;;10.25;;
11711;SDS011;5912;51.034;6.984;2022-08-19T04:05:14;11.55;;;10.45;;
11711;SDS011;5912;51.034;6.984;2022-08-19T04:07:40;11.88;;;10.68;;
11711;SDS011;5912;51.034;6.984;2022-08-19T04:10:05;12.10;;;10.75;;
11711;SDS011;5912;51.034;6.984;2022-08-19T04:12:31;12.02;;;10.82;;
11711;SDS011;5912;51.034;6.984;2022-08-19T04:14:57;11.45;;;10.32;;
11711;SDS011;5912;51.034;6.984;2022-08-19T04:17:23;11.77;;;10.55;;
11711;SDS011;5912;51.034;6.984;2022-08-19T04:19:48;12.20;;;10.93;;
11711;SDS011;5912;51.034;6.984;2022-08-19T04:22:14;11.20;;;9.85;;
11711;SDS011;5912;51.034;6.984;2022-08-19T04:24:39;11.82;;;10.63;;
11711;SDS011;5912;51.034;6.984;2022-08-19T04:27:04;12.20;;;10.88;;
11711;SDS011;5912;51.034;6.984;2022-08-19T04:29:31;12.95;;;11.55;;
11711;SDS011;5912;51.034;6.984;2022-08-19T04:31:57;12.93;;;11.57;;
11711;SDS011;5912;51.034;6.984;2022-08-19T04:34:24;12.55;;;11.25;;
11711;SDS011;5912;51.034;6.984;2022-08-19T04:36:51;13.05;;;11.75;;
11711;SDS011;5912;51.034;6.984;2022-08-19T04:39:22;15.13;;;13.48;;
11711;SDS011;5912;51.034;6.984;2022-08-19T04:42:13;13.95;;;12.57;;
11711;SDS011;5912;51.034;6.984;2022-08-19T04:44:58;14.50;;;13.00;;
11711;SDS011;5912;51.034;6.984;2022-08-19T04:47:23;13.43;;;11.90;;
11711;SDS011;5912;51.034;6.984;2022-08-19T04:49:49;13.45;;;12.05;;
11711;SDS011;5912;51.034;6.984;2022-08-19T04:52:14;13.73;;;12.32;;
11711;SDS011;5912;51.034;6.984;2022-08-19T04:54:39;13.25;;;11.75;;
11711;SDS011;5912;51.034;6.984;2022-08-19T04:57:07;14.30;;;12.07;;
11711;SDS011;5912;51.034;6.984;2022-08-19T04:59:34;13.73;;;12.05;;
11711;SDS011;5912;51.034;6.984;2022-08-19T05:02:01;14.98;;;13.13;;
11711;SDS011;5912;51.034;6.984;2022-08-19T05:04:27;14.90;;;12.93;;
11711;SDS011;5912;51.034;6.984;2022-08-19T05:06:56;12.80;;;11.50;;
11711;SDS011;5912;51.034;6.984;2022-08-19T05:09:22;13.32;;;11.75;;
11711;SDS011;5912;51.034;6.984;2022-08-19T05:11:47;12.43;;;11.13;;
11711;SDS011;5912;51.034;6.984;2022-08-19T05:14:12;13.00;;;11.48;;
11711;SDS011;5912;51.034;6.984;2022-08-19T05:16:38;12.02;;;10.82;;
11711;SDS011;5912;51.034;6.984;2022-08-19T05:19:05;12.57;;;10.73;;
11711;SDS011;5912;51.034;6.984;2022-08-19T05:21:49;12.93;;;11.25;;
11711;SDS011;5912;51.034;6.984;2022-08-19T05:24:33;10.35;;;9.35;;
11711;SDS011;5912;51.034;6.984;2022-08-19T05:26:59;12.60;;;11.27;;
11711;SDS011;5912;51.034;6.984;2022-08-19T05:29:27;17.30;;;14.93;;
11711;SDS011;5912;51.034;6.984;2022-08-19T05:31:54;29.88;;;21.35;;
11711;SDS011;5912;51.034;6.984;2022-08-19T05:34:21;24.55;;;19.20;;
11711;SDS011;5912;51.034;6.984;2022-08-19T05:36:50;35.65;;;25.42;;
11711;SDS011;5912;51.034;6.984;2022-08-19T05:39:20;27.05;;;21.55;;
11711;SDS011;5912;51.034;6.984;2022-08-19T05:41:47;29.40;;;22.52;;
11711;SDS011;5912;51.034;6.984;2022-08-19T05:44:14;27.27;;;20.73;;
11711;SDS011;5912;51.034;6.984;2022-08-19T05:46:41;24.98;;;21.23;;
11711;SDS011;5912;51.034;6.984;2022-08-19T05:49:08;28.83;;;22.88;;
11711;SDS011;5912;51.034;6.984;2022-08-19T05:51:34;23.10;;;19.73;;
11711;SDS011;5912;51.034;6.984;2022-08-19T05:54:02;27.52;;;22.70;;
11711;SDS011;5912;51.034;6.984;2022-08-19T05:56:29;31.35;;;23.73;;
11711;SDS011;5912;51.034;6.984;2022-08-19T05:58:57;32.10;;;26.08;;
11711;SDS011;5912;51.034;6.984;2022-08-19T06:01:23;24.38;;;20.25;;
11711;SDS011;5912;51.034;6.984;2022-08-19T06:03:51;26.83;;;22.00;;
11711;SDS011;5912;51.034;6.984;2022-08-19T06:06:16;24.38;;;19.60;;
11711;SDS011;5912;51.034;6.984;2022-08-19T06:08:42;28.08;;;22.50;;
11711;SDS011;5912;51.034;6.984;2022-08-19T06:13:44;31.45;;;24.85;;
11711;SDS011;5912;51.034;6.984;2022-08-19T06:16:12;28.40;;;23.85;;
11711;SDS011;5912;51.034;6.984;2022-08-19T06:18:44;29.88;;;25.02;;
11711;SDS011;5912;51.034;6.984;2022-08-19T06:21:10;30.98;;;23.52;;
11711;SDS011;5912;51.034;6.984;2022-08-19T06:23:35;28.92;;;23.50;;
11711;SDS011;5912;51.034;6.984;2022-08-19T06:26:00;30.65;;;23.33;;
11711;SDS011;5912;51.034;6.984;2022-08-19T06:31:45;25.38;;;21.60;;
11711;SDS011;5912;51.034;6.984;2022-08-19T06:34:14;27.30;;;21.30;;
11711;SDS011;5912;51.034;6.984;2022-08-19T06:36:41;25.80;;;19.52;;
11711;SDS011;5912;51.034;6.984;2022-08-19T06:39:19;25.05;;;21.70;;
11711;SDS011;5912;51.034;6.984;2022-08-19T06:41:48;23.75;;;20.48;;
11711;SDS011;5912;51.034;6.984;2022-08-19T06:44:15;26.15;;;21.80;;
11711;SDS011;5912;51.034;6.984;2022-08-19T06:46:40;26.05;;;21.10;;
11711;SDS011;5912;51.034;6.984;2022-08-19T06:49:06;26.77;;;18.85;;
11711;SDS011;5912;51.034;6.984;2022-08-19T06:51:34;17.92;;;14.73;;
11711;SDS011;5912;51.034;6.984;2022-08-19T06:53:59;23.20;;;18.40;;
11711;SDS011;5912;51.034;6.984;2022-08-19T06:56:26;15.68;;;14.07;;
11711;SDS011;5912;51.034;6.984;2022-08-19T06:58:58;19.83;;;16.88;;
11711;SDS011;5912;51.034;6.984;2022-08-19T07:01:36;18.40;;;15.85;;
11711;SDS011;5912;51.034;6.984;2022-08-19T07:04:03;16.90;;;14.30;;
11711;SDS011;5912;51.034;6.984;2022-08-19T07:06:29;17.20;;;14.57;;
11711;SDS011;5912;51.034;6.984;2022-08-19T07:08:56;23.67;;;19.45;;
11711;SDS011;5912;51.034;6.984;2022-08-19T07:11:23;17.63;;;15.40;;
11711;SDS011;5912;51.034;6.984;2022-08-19T07:13:48;16.27;;;14.55;;
11711;SDS011;5912;51.034;6.984;2022-08-19T07:16:15;15.07;;;13.50;;
11711;SDS011;5912;51.034;6.984;2022-08-19T07:18:44;19.05;;;15.55;;
11711;SDS011;5912;51.034;6.984;2022-08-19T07:21:15;15.18;;;11.75;;
11711;SDS011;5912;51.034;6.984;2022-08-19T07:23:43;16.35;;;13.60;;
11711;SDS011;5912;51.034;6.984;2022-08-19T07:26:10;13.73;;;11.60;;
11711;SDS011;5912;51.034;6.984;2022-08-19T07:28:44;13.35;;;11.95;;
11711;SDS011;5912;51.034;6.984;2022-08-19T07:31:11;14.38;;;12.20;;
11711;SDS011;5912;51.034;6.984;2022-08-19T07:33:38;16.48;;;12.50;;
11711;SDS011;5912;51.034;6.984;2022-08-19T07:36:06;17.42;;;14.93;;
11711;SDS011;5912;51.034;6.984;2022-08-19T07:38:33;20.48;;;15.65;;
11711;SDS011;5912;51.034;6.984;2022-08-19T07:40:59;17.58;;;13.93;;
11711;SDS011;5912;51.034;6.984;2022-08-19T07:43:26;13.75;;;12.30;;
11711;SDS011;5912;51.034;6.984;2022-08-19T07:45:52;17.88;;;14.95;;
11711;SDS011;5912;51.034;6.984;2022-08-19T07:48:21;18.48;;;13.65;;
11711;SDS011;5912;51.034;6.984;2022-08-19T07:50:52;19.52;;;16.13;;
11711;SDS011;5912;51.034;6.984;2022-08-19T07:53:22;16.38;;;12.57;;
11711;SDS011;5912;51.034;6.984;2022-08-19T07:55:48;18.70;;;15.52;;
11711;SDS011;5912;51.034;6.984;2022-08-19T07:58:14;21.73;;;16.95;;
11711;SDS011;5912;51.034;6.984;2022-08-19T08:00:43;19.52;;;15.63;;
11711;SDS011;5912;51.034;6.984;2022-08-19T08:03:10;13.60;;;12.15;;
11711;SDS011;5912;51.034;6.984;2022-08-19T08:05:45;16.70;;;14.10;;
11711;SDS011;5912;51.034;6.984;2022-08-19T08:08:29;12.85;;;11.50;;
11711;SDS011;5912;51.034;6.984;2022-08-19T08:11:10;13.43;;;10.63;;
11711;SDS011;5912;51.034;6.984;2022-08-19T08:13:36;14.13;;;11.10;;
11711;SDS011;5912;51.034;6.984;2022-08-19T08:16:01;15.82;;;13.32;;
11711;SDS011;5912;51.034;6.984;2022-08-19T08:18:27;14.23;;;12.32;;
11711;SDS011;5912;51.034;6.984;2022-08-19T08:20:54;20.80;;;15.90;;
11711;SDS011;5912;51.034;6.984;2022-08-19T08:23:20;18.20;;;15.15;;
11711;SDS011;5912;51.034;6.984;2022-08-19T08:25:50;21.17;;;16.40;;
11711;SDS011;5912;51.034;6.984;2022-08-19T08:28:18;23.20;;;17.65;;
11711;SDS011;5912;51.034;6.984;2022-08-19T08:30:44;18.23;;;13.52;;
11711;SDS011;5912;51.034;6.984;2022-08-19T08:33:12;14.52;;;12.32;;
11711;SDS011;5912;51.034;6.984;2022-08-19T08:35:39;16.25;;;11.43;;
11711;SDS011;5912;51.034;6.984;2022-08-19T08:38:06;16.02;;;14.32;;
11711;SDS011;5912;51.034;6.984;2022-08-19T08:43:19;12.68;;;10.88;;
11711;SDS011;5912;51.034;6.984;2022-08-19T08:46:05;17.40;;;14.10;;
11711;SDS011;5912;51.034;6.984;2022-08-19T08:48:36;19.05;;;14.57;;
11711;SDS011;5912;51.034;6.984;2022-08-19T08:54:15;15.70;;;14.10;;
11711;SDS011;5912;51.034;6.984;2022-08-19T08:56:44;11.88;;;10.57;;
11711;SDS011;5912;51.034;6.984;2022-08-19T08:59:22;14.45;;;12.70;;
11711;SDS011;5912;51.034;6.984;2022-08-19T09:01:51;17.75;;;11.48;;
11711;SDS011;5912;51.034;6.984;2022-08-19T09:04:16;13.15;;;10.75;;
11711;SDS011;5912;51.034;6.984;2022-08-19T09:06:54;16.65;;;13.15;;
11711;SDS011;5912;51.034;6.984;2022-08-19T09:09:31;12.68;;;10.30;;
11711;SDS011;5912;51.034;6.984;2022-08-19T09:14:50;11.25;;;9.50;;
11711;SDS011;5912;51.034;6.984;2022-08-19T09:17:22;13.20;;;11.77;;
11711;SDS011;5912;51.034;6.984;2022-08-19T09:22:39;15.02;;;12.82;;
11711;SDS011;5912;51.034;6.984;2022-08-19T09:25:09;12.63;;;10.88;;
11711;SDS011;5912;51.034;6.984;2022-08-19T09:27:36;10.98;;;9.73;;
11711;SDS011;5912;51.034;6.984;2022-08-19T09:30:04;12.98;;;10.02;;
11711;SDS011;5912;51.034;6.984;2022-08-19T09:32:30;12.38;;;10.07;;
11711;SDS011;5912;51.034;6.984;2022-08-19T09:34:56;14.07;;;10.90;;
11711;SDS011;5912;51.034;6.984;2022-08-19T09:37:23;15.40;;;11.88;;
11711;SDS011;5912;51.034;6.984;2022-08-19T09:39:49;10.65;;;9.35;;
11711;SDS011;5912;51.034;6.984;2022-08-19T09:42:15;11.60;;;9.65;;
11711;SDS011;5912;51.034;6.984;2022-08-19T09:44:41;13.18;;;9.35;;
11711;SDS011;5912;51.034;6.984;2022-08-19T09:47:08;9.98;;;8.85;;
11711;SDS011;5912;51.034;6.984;2022-08-19T09:49:34;14.35;;;11.07;;
11711;SDS011;5912;51.034;6.984;2022-08-19T09:52:00;13.25;;;9.68;;
11711;SDS011;5912;51.034;6.984;2022-08-19T09:54:26;14.27;;;11.38;;
11711;SDS011;5912;51.034;6.984;2022-08-19T09:56:52;7.95;;;7.15;;
11711;SDS011;5912;51.034;6.984;2022-08-19T09:59:18;10.30;;;8.35;;
11711;SDS011;5912;51.034;6.984;2022-08-19T10:01:44;11.60;;;8.98;;
11711;SDS011;5912;51.034;6.984;2022-08-19T10:04:09;14.68;;;10.48;;
11711;SDS011;5912;51.034;6.984;2022-08-19T10:06:36;17.17;;;10.40;;
11711;SDS011;5912;51.034;6.984;2022-08-19T10:09:04;12.27;;;10.00;;
11711;SDS011;5912;51.034;6.984;2022-08-19T10:11:31;8.43;;;7.05;;
11711;SDS011;5912;51.034;6.984;2022-08-19T10:13:57;11.85;;;10.10;;
11711;SDS011;5912;51.034;6.984;2022-08-19T10:16:23;11.15;;;8.70;;
11711;SDS011;5912;51.034;6.984;2022-08-19T10:18:49;11.10;;;9.23;;
11711;SDS011;5912;51.034;6.984;2022-08-19T10:21:33;10.85;;;9.50;;
11711;SDS011;5912;51.034;6.984;2022-08-19T10:24:00;7.85;;;6.32;;
11711;SDS011;5912;51.034;6.984;2022-08-19T10:26:30;11.45;;;8.40;;
11711;SDS011;5912;51.034;6.984;2022-08-19T10:28:57;7.95;;;6.13;;
11711;SDS011;5912;51.034;6.984;2022-08-19T10:31:24;6.88;;;5.97;;
11711;SDS011;5912;51.034;6.984;2022-08-19T10:33:54;10.15;;;9.07;;
11711;SDS011;5912;51.034;6.984;2022-08-19T10:36:25;8.55;;;6.93;;
11711;SDS011;5912;51.034;6.984;2022-08-19T10:38:54;7.63;;;6.47;;
11711;SDS011;5912;51.034;6.984;2022-08-19T10:41:23;7.32;;;5.70;;
11711;SDS011;5912;51.034;6.984;2022-08-19T10:43:56;6.85;;;5.88;;
11711;SDS011;5912;51.034;6.984;2022-08-19T10:46:23;7.70;;;6.32;;
11711;SDS011;5912;51.034;6.984;2022-08-19T10:48:50;5.07;;;4.57;;
11711;SDS011;5912;51.034;6.984;2022-08-19T10:51:17;7.05;;;5.05;;
11711;SDS011;5912;51.034;6.984;2022-08-19T10:54:01;5.78;;;4.82;;
11711;SDS011;5912;51.034;6.984;2022-08-19T10:56:28;6.22;;;4.65;;
11711;SDS011;5912;51.034;6.984;2022-08-19T10:59:13;4.53;;;4.13;;
11711;SDS011;5912;51.034;6.984;2022-08-19T11:01:39;5.32;;;4.47;;
11711;SDS011;5912;51.034;6.984;2022-08-19T11:04:05;5.57;;;4.90;;
11711;SDS011;5912;51.034;6.984;2022-08-19T11:06:34;6.28;;;5.25;;
11711;SDS011;5912;51.034;6.984;2022-08-19T11:09:01;5.60;;;4.95;;
11711;SDS011;5912;51.034;6.984;2022-08-19T11:11:27;8.00;;;5.53;;
11711;SDS011;5912;51.034;6.984;2022-08-19T11:13:53;6.47;;;5.78;;
11711;SDS011;5912;51.034;6.984;2022-08-19T11:16:19;6.45;;;5.50;;
11711;SDS011;5912;51.034;6.984;2022-08-19T11:18:48;9.93;;;7.57;;
11711;SDS011;5912;51.034;6.984;2022-08-19T11:21:17;7.30;;;5.40;;
11711;SDS011;5912;51.034;6.984;2022-08-19T11:23:48;7.93;;;5.32;;
11711;SDS011;5912;51.034;6.984;2022-08-19T11:26:15;6.13;;;5.53;;
11711;SDS011;5912;51.034;6.984;2022-08-19T11:28:42;7.45;;;4.85;;
11711;SDS011;5912;51.034;6.984;2022-08-19T11:31:11;6.50;;;5.03;;
11711;SDS011;5912;51.034;6.984;2022-08-19T11:33:38;6.63;;;4.80;;
11711;SDS011;5912;51.034;6.984;2022-08-19T11:36:04;6.57;;;5.45;;
11711;SDS011;5912;51.034;6.984;2022-08-19T11:38:29;4.97;;;4.43;;
11711;SDS011;5912;51.034;6.984;2022-08-19T11:40:59;5.22;;;4.72;;
11711;SDS011;5912;51.034;6.984;2022-08-19T11:43:26;6.10;;;5.50;;
11711;SDS011;5912;51.034;6.984;2022-08-19T11:45:52;5.18;;;4.00;;
11711;SDS011;5912;51.034;6.984;2022-08-19T11:48:18;4.72;;;4.32;;
11711;SDS011;5912;51.034;6.984;2022-08-19T11:50:47;4.95;;;4.45;;
11711;SDS011;5912;51.034;6.984;2022-08-19T11:53:13;4.35;;;3.85;;
11711;SDS011;5912;51.034;6.984;2022-08-19T11:55:38;6.15;;;5.55;;
11711;SDS011;5912;51.034;6.984;2022-08-19T11:58:05;4.85;;;4.30;;
11711;SDS011;5912;51.034;6.984;2022-08-19T12:00:31;4.40;;;4.00;;
11711;SDS011;5912;51.034;6.984;2022-08-19T12:02:58;4.03;;;3.63;;
11711;SDS011;5912;51.034;6.984;2022-08-19T12:05:23;3.60;;;3.28;;
11711;SDS011;5912;51.034;6.984;2022-08-19T12:07:48;5.55;;;3.65;;
11711;SDS011;5912;51.034;6.984;2022-08-19T12:10:14;5.17;;;4.03;;
11711;SDS011;5912;51.034;6.984;2022-08-19T12:12:39;4.35;;;3.92;;
11711;SDS011;5912;51.034;6.984;2022-08-19T12:15:07;3.63;;;3.22;;
11711;SDS011;5912;51.034;6.984;2022-08-19T12:17:33;3.75;;;3.45;;
11711;SDS011;5912;51.034;6.984;2022-08-19T12:19:59;4.60;;;3.97;;
11711;SDS011;5912;51.034;6.984;2022-08-19T12:22:25;4.60;;;3.92;;
11711;SDS011;5912;51.034;6.984;2022-08-19T12:24:50;4.32;;;3.70;;
11711;SDS011;5912;51.034;6.984;2022-08-19T12:27:17;3.90;;;3.60;;
11711;SDS011;5912;51.034;6.984;2022-08-19T12:29:43;3.65;;;3.35;;
11711;SDS011;5912;51.034;6.984;2022-08-19T12:32:08;3.33;;;3.00;;
11711;SDS011;5912;51.034;6.984;2022-08-19T12:34:34;3.70;;;3.40;;
11711;SDS011;5912;51.034;6.984;2022-08-19T12:37:02;2.88;;;2.65;;
11711;SDS011;5912;51.034;6.984;2022-08-19T12:39:29;3.67;;;3.35;;
11711;SDS011;5912;51.034;6.984;2022-08-19T12:41:56;3.60;;;3.00;;
11711;SDS011;5912;51.034;6.984;2022-08-19T12:44:21;3.15;;;2.95;;
11711;SDS011;5912;51.034;6.984;2022-08-19T12:46:47;3.55;;;3.25;;
11711;SDS011;5912;51.034;6.984;2022-08-19T12:49:13;3.30;;;3.00;;
11711;SDS011;5912;51.034;6.984;2022-08-19T12:51:40;3.75;;;3.35;;
11711;SDS011;5912;51.034;6.984;2022-08-19T12:54:06;3.65;;;3.10;;
11711;SDS011;5912;51.034;6.984;2022-08-19T12:56:31;3.72;;;3.33;;
11711;SDS011;5912;51.034;6.984;2022-08-19T12:59:00;3.92;;;3.15;;
11711;SDS011;5912;51.034;6.984;2022-08-19T13:01:27;4.00;;;3.53;;
11711;SDS011;5912;51.034;6.984;2022-08-19T13:03:55;5.72;;;3.25;;
11711;SDS011;5912;51.034;6.984;2022-08-19T13:06:20;4.15;;;3.58;;
11711;SDS011;5912;51.034;6.984;2022-08-19T13:08:46;3.20;;;2.97;;
11711;SDS011;5912;51.034;6.984;2022-08-19T13:11:12;4.45;;;3.20;;
11711;SDS011;5912;51.034;6.984;2022-08-19T13:13:40;3.45;;;2.83;;
11711;SDS011;5912;51.034;6.984;2022-08-19T13:16:08;3.63;;;3.13;;
11711;SDS011;5912;51.034;6.984;2022-08-19T13:18:36;3.42;;;3.13;;
11711;SDS011;5912;51.034;6.984;2022-08-19T13:21:06;3.65;;;3.35;;
11711;SDS011;5912;51.034;6.984;2022-08-19T13:23:33;5.40;;;3.95;;
11711;SDS011;5912;51.034;6.984;2022-08-19T13:26:01;4.32;;;3.90;;
11711;SDS011;5912;51.034;6.984;2022-08-19T13:28:29;3.95;;;3.55;;
11711;SDS011;5912;51.034;6.984;2022-08-19T13:31:14;5.10;;;3.80;;
11711;SDS011;5912;51.034;6.984;2022-08-19T13:34:02;3.63;;;3.30;;
11711;SDS011;5912;51.034;6.984;2022-08-19T13:36:28;4.22;;;3.20;;
11711;SDS011;5912;51.034;6.984;2022-08-19T13:38:53;4.57;;;3.50;;
11711;SDS011;5912;51.034;6.984;2022-08-19T13:41:19;3.72;;;3.33;;
11711;SDS011;5912;51.034;6.984;2022-08-19T13:43:44;3.88;;;3.10;;
11711;SDS011;5912;51.034;6.984;2022-08-19T13:46:10;3.30;;;3.00;;
11711;SDS011;5912;51.034;6.984;2022-08-19T13:48:38;3.63;;;3.20;;
11711;SDS011;5912;51.034;6.984;2022-08-19T13:51:06;5.85;;;3.78;;
11711;SDS011;5912;51.034;6.984;2022-08-19T13:53:34;3.90;;;3.22;;
11711;SDS011;5912;51.034;6.984;2022-08-19T13:56:06;3.20;;;2.90;;
11711;SDS011;5912;51.034;6.984;2022-08-19T13:58:33;3.35;;;2.92;;
11711;SDS011;5912;51.034;6.984;2022-08-19T14:00:58;3.33;;;3.03;;
11711;SDS011;5912;51.034;6.984;2022-08-19T14:03:25;4.30;;;2.97;;
11711;SDS011;5912;51.034;6.984;2022-08-19T14:05:51;3.45;;;2.80;;
11711;SDS011;5912;51.034;6.984;2022-08-19T14:08:16;3.40;;;2.53;;
11711;SDS011;5912;51.034;6.984;2022-08-19T14:10:43;5.50;;;2.55;;
11711;SDS011;5912;51.034;6.984;2022-08-19T14:13:09;2.80;;;2.47;;
11711;SDS011;5912;51.034;6.984;2022-08-19T14:15:37;2.63;;;2.42;;
11711;SDS011;5912;51.034;6.984;2022-08-19T14:18:03;3.08;;;2.75;;
11711;SDS011;5912;51.034;6.984;2022-08-19T14:20:28;3.17;;;2.30;;
11711;SDS011;5912;51.034;6.984;2022-08-19T14:22:54;3.25;;;2.75;;
11711;SDS011;5912;51.034;6.984;2022-08-19T14:25:21;2.92;;;2.60;;
11711;SDS011;5912;51.034;6.984;2022-08-19T14:27:48;3.03;;;2.60;;
11711;SDS011;5912;51.034;6.984;2022-08-19T14:30:16;3.35;;;3.00;;
11711;SDS011;5912;51.034;6.984;2022-08-19T14:32:48;5.78;;;3.20;;
11711;SDS011;5912;51.034;6.984;2022-08-19T14:35:14;3.05;;;2.75;;
11711;SDS011;5912;51.034;6.984;2022-08-19T14:37:41;2.88;;;2.30;;
11711;SDS011;5912;51.034;6.984;2022-08-19T14:40:07;3.00;;;2.33;;
11711;SDS011;5912;51.034;6.984;2022-08-19T14:42:33;2.55;;;2.25;;
11711;SDS011;5912;51.034;6.984;2022-08-19T14:44:59;4.03;;;2.83;;
11711;SDS011;5912;51.034;6.984;2022-08-19T14:47:25;3.35;;;3.03;;
11711;SDS011;5912;51.034;6.984;2022-08-19T14:49:51;3.78;;;2.53;;
11711;SDS011;5912;51.034;6.984;2022-08-19T14:52:17;2.60;;;2.40;;
11711;SDS011;5912;51.034;6.984;2022-08-19T14:54:42;3.05;;;2.53;;
11711;SDS011;5912;51.034;6.984;2022-08-19T14:57:11;5.40;;;2.63;;
11711;SDS011;5912;51.034;6.984;2022-08-19T14:59:39;3.15;;;2.33;;
11711;SDS011;5912;51.034;6.984;2022-08-19T15:02:05;2.80;;;2.33;;
11711;SDS011;5912;51.034;6.984;2022-08-19T15:04:30;3.28;;;2.63;;
11711;SDS011;5912;51.034;6.984;2022-08-19T15:06:56;3.63;;;2.30;;
11711;SDS011;5912;51.034;6.984;2022-08-19T15:09:21;3.17;;;2.33;;